createdAt,value
2022-11-16T00:01:24.895Z,5.32
2022-11-16T00:03:52.898Z,5.40
2022-11-16T00:06:20.281Z,5.73
2022-11-16T00:09:08.018Z,5.85
2022-11-16T00:11:34.744Z,5.93
2022-11-16T00:14:01.087Z,5.50
2022-11-16T00:16:27.900Z,5.70
2022-11-16T00:18:58.918Z,5.57
2022-11-16T00:21:26.952Z,5.47
2022-11-16T00:23:53.991Z,5.25
2022-11-16T00:26:20.851Z,5.97
2022-11-16T00:28:48.058Z,5.95
2022-11-16T00:31:14.409Z,4.90
2022-11-16T00:33:41.131Z,5.75
2022-11-16T00:36:10.590Z,6.28
2022-11-16T00:38:36.977Z,5.70
2022-11-16T00:41:03.665Z,6.10
2022-11-16T00:43:30.305Z,6.20
2022-11-16T00:45:56.634Z,5.45
2022-11-16T00:48:22.965Z,6.40
2022-11-16T00:50:49.363Z,5.47
2022-11-16T00:53:18.689Z,5.60
2022-11-16T00:55:46.082Z,5.63
2022-11-16T00:58:12.756Z,5.93
2022-11-16T01:00:39.876Z,5.57
2022-11-16T01:03:06.934Z,6.15
2022-11-16T01:05:33.666Z,6.07
2022-11-16T01:08:00.330Z,5.97
2022-11-16T01:10:27.952Z,5.68
2022-11-16T01:12:54.795Z,5.68
2022-11-16T01:15:22.840Z,6.20
2022-11-16T01:17:49.244Z,5.50
2022-11-16T01:20:18.746Z,6.33
2022-11-16T01:22:45.690Z,6.00
2022-11-16T01:25:13.409Z,5.22
2022-11-16T01:27:40.636Z,5.25
2022-11-16T01:30:09.638Z,5.78
2022-11-16T01:32:36.262Z,5.43
2022-11-16T01:35:03.301Z,5.70
2022-11-16T01:37:30.409Z,6.07
2022-11-16T01:39:56.753Z,6.25
2022-11-16T01:42:27.161Z,5.57
2022-11-16T01:44:58.565Z,5.60
2022-11-16T01:47:24.922Z,5.70
2022-11-16T01:50:01.359Z,5.63
2022-11-16T01:52:31.512Z,6.07
2022-11-16T01:54:58.034Z,6.53
2022-11-16T01:57:30.511Z,5.57
2022-11-16T02:00:00.446Z,5.60
2022-11-16T02:02:26.951Z,5.70
2022-11-16T02:04:54.893Z,6.22
2022-11-16T02:08:05.456Z,5.30
2022-11-16T02:10:55.339Z,4.27
2022-11-16T02:13:34.706Z,4.82
2022-11-16T02:16:35.625Z,5.25
2022-11-16T02:19:01.876Z,4.43
2022-11-16T02:21:46.438Z,4.90
2022-11-16T02:24:27.923Z,4.87
2022-11-16T02:27:28.406Z,4.80
2022-11-16T02:29:56.032Z,4.65
2022-11-16T02:32:30.332Z,5.55
2022-11-16T02:35:05.961Z,4.47
2022-11-16T02:37:38.285Z,4.47
2022-11-16T02:40:07.850Z,4.50
2022-11-16T02:42:40.959Z,4.40
2022-11-16T02:45:12.490Z,4.20
2022-11-16T02:47:41.504Z,4.50
2022-11-16T02:50:14.049Z,4.53
2022-11-16T02:52:40.440Z,4.20
2022-11-16T02:55:07.328Z,4.22
2022-11-16T02:57:51.356Z,4.40
2022-11-16T03:00:23.958Z,4.07
2022-11-16T03:03:00.126Z,4.50
2022-11-16T03:05:42.245Z,4.18
2022-11-16T03:08:35.163Z,4.00
2022-11-16T03:11:23.857Z,4.50
2022-11-16T03:13:52.157Z,4.20
2022-11-16T03:16:37.932Z,3.90
2022-11-16T03:19:08.551Z,3.70
2022-11-16T03:21:48.383Z,3.95
2022-11-16T03:24:15.522Z,4.00
2022-11-16T03:27:01.214Z,3.53
2022-11-16T03:29:40.406Z,4.00
2022-11-16T03:32:19.382Z,4.13
2022-11-16T03:34:56.266Z,3.53
2022-11-16T03:37:24.769Z,3.75
2022-11-16T03:39:53.261Z,3.60
2022-11-16T03:42:21.709Z,4.13
2022-11-16T03:44:49.432Z,3.78
2022-11-16T03:47:15.806Z,4.00
2022-11-16T03:49:46.358Z,4.50
2022-11-16T03:52:14.233Z,4.28
2022-11-16T03:54:40.962Z,4.97
2022-11-16T03:57:07.320Z,4.53
2022-11-16T03:59:33.694Z,4.95
2022-11-16T04:02:00.043Z,4.43
2022-11-16T04:04:52.493Z,3.63
2022-11-16T04:07:37.291Z,4.23
2022-11-16T04:10:22.634Z,3.75
2022-11-16T04:13:09.379Z,4.15
2022-11-16T04:15:54.108Z,3.42
2022-11-16T04:18:38.900Z,3.13
2022-11-16T04:21:23.985Z,4.10
2022-11-16T04:24:08.838Z,2.65
2022-11-16T04:26:54.089Z,3.05
2022-11-16T04:29:20.488Z,2.55
2022-11-16T04:32:05.410Z,2.75
2022-11-16T04:34:50.231Z,2.93
2022-11-16T04:37:36.535Z,2.60
2022-11-16T04:40:03.971Z,1.92
2022-11-16T04:42:30.339Z,2.65
2022-11-16T04:45:15.489Z,2.05
2022-11-16T04:47:41.834Z,2.37
2022-11-16T04:50:08.369Z,2.00
2022-11-16T04:52:34.842Z,1.65
2022-11-16T04:55:01.135Z,1.95
2022-11-16T04:57:27.479Z,1.67
2022-11-16T04:59:53.769Z,1.50
2022-11-16T05:02:20.514Z,1.80
2022-11-16T05:04:46.824Z,1.90
2022-11-16T05:07:14.837Z,2.20
2022-11-16T05:09:46.697Z,2.05
2022-11-16T05:12:16.259Z,2.20
2022-11-16T05:14:43.231Z,1.92
2022-11-16T05:17:09.778Z,2.00
2022-11-16T05:19:54.642Z,2.03
2022-11-16T05:22:21.371Z,1.95
2022-11-16T05:24:47.699Z,1.70
2022-11-16T05:27:17.295Z,2.53
2022-11-16T05:29:43.803Z,2.30
2022-11-16T05:32:12.471Z,2.20
2022-11-16T05:34:39.516Z,1.77
2022-11-16T05:37:06.126Z,2.17
2022-11-16T05:39:32.463Z,2.33
2022-11-16T05:41:58.778Z,2.30
2022-11-16T05:44:25.510Z,2.60
2022-11-16T05:46:52.685Z,2.85
2022-11-16T05:49:19.313Z,2.23
2022-11-16T05:51:46.722Z,2.38
2022-11-16T05:54:20.565Z,2.35
2022-11-16T05:56:48.300Z,3.03
2022-11-16T05:59:19.089Z,3.22
2022-11-16T06:01:46.191Z,2.70
2022-11-16T06:04:13.490Z,3.13
2022-11-16T06:06:40.305Z,3.80
2022-11-16T06:09:07.518Z,3.75
2022-11-16T06:11:36.284Z,3.35
2022-11-16T06:14:03.090Z,4.30
2022-11-16T06:16:29.431Z,5.43
2022-11-16T06:18:55.749Z,4.60
2022-11-16T06:21:22.077Z,5.38
2022-11-16T06:23:49.052Z,4.82
2022-11-16T06:26:15.422Z,5.93
2022-11-16T06:28:41.926Z,5.35
2022-11-16T06:31:08.414Z,5.45
2022-11-16T06:33:34.766Z,6.10
2022-11-16T06:36:01.075Z,5.85
2022-11-16T06:38:27.533Z,5.50
2022-11-16T06:40:56.206Z,5.57
2022-11-16T06:43:24.202Z,5.65
2022-11-16T06:45:55.718Z,6.20
2022-11-16T06:48:22.861Z,5.97
2022-11-16T06:50:50.631Z,5.53
2022-11-16T06:53:17.918Z,6.43
2022-11-16T06:55:44.709Z,5.82
2022-11-16T06:58:11.134Z,5.93
2022-11-16T07:00:37.519Z,5.43
2022-11-16T07:03:04.373Z,5.30
2022-11-16T07:05:31.419Z,4.97
2022-11-16T07:07:58.008Z,5.18
2022-11-16T07:10:25.313Z,4.65
2022-11-16T07:12:51.755Z,4.60
2022-11-16T07:15:18.243Z,3.73
2022-11-16T07:17:44.614Z,3.97
2022-11-16T07:20:11.995Z,3.63
2022-11-16T07:22:38.514Z,3.40
2022-11-16T07:25:05.225Z,3.70
2022-11-16T07:27:31.569Z,3.93
2022-11-16T07:29:57.885Z,2.95
2022-11-16T07:32:24.217Z,3.10
2022-11-16T07:34:50.520Z,2.78
2022-11-16T07:37:16.830Z,3.00
2022-11-16T07:39:43.557Z,2.90
2022-11-16T07:42:11.650Z,2.60
2022-11-16T07:44:38.980Z,2.80
2022-11-16T07:47:06.178Z,2.90
2022-11-16T07:49:32.512Z,1.95
2022-11-16T07:51:58.870Z,2.47
2022-11-16T07:54:25.261Z,2.50
2022-11-16T07:56:52.106Z,1.23
2022-11-16T07:59:18.403Z,1.70
2022-11-16T08:01:47.277Z,1.90
2022-11-16T08:04:15.321Z,1.30
2022-11-16T08:06:41.642Z,1.20
2022-11-16T08:09:09.349Z,0.90
2022-11-16T08:11:35.863Z,0.80
2022-11-16T08:14:02.267Z,0.93
2022-11-16T08:16:29.173Z,0.60
2022-11-16T08:18:55.786Z,1.23
2022-11-16T08:21:22.095Z,0.95
2022-11-16T08:23:49.916Z,0.80
2022-11-16T08:26:19.891Z,0.70
2022-11-16T08:28:47.663Z,0.87
2022-11-16T08:31:17.325Z,1.10
2022-11-16T08:33:43.689Z,0.85
2022-11-16T08:36:14.459Z,0.82
2022-11-16T08:38:41.018Z,1.02
2022-11-16T08:41:07.474Z,1.53
2022-11-16T08:43:33.965Z,0.70
2022-11-16T08:46:00.683Z,0.90
2022-11-16T08:48:27.370Z,0.70
2022-11-16T08:51:16.323Z,0.93
2022-11-16T08:53:40.259Z,0.80
2022-11-16T08:56:09.062Z,1.00
2022-11-16T08:58:36.358Z,0.73
2022-11-16T09:01:13.861Z,0.98
2022-11-16T09:03:41.757Z,0.73
2022-11-16T09:06:09.410Z,0.90
2022-11-16T09:08:38.052Z,0.63
2022-11-16T09:11:06.003Z,1.15
2022-11-16T09:13:32.356Z,1.25
2022-11-16T09:15:59.660Z,0.82
2022-11-16T09:18:26.654Z,0.80
2022-11-16T09:20:53.202Z,0.90
2022-11-16T09:23:24.895Z,0.82
2022-11-16T09:25:51.867Z,0.98
2022-11-16T09:28:19.578Z,0.30
2022-11-16T09:30:48.518Z,0.83
2022-11-16T09:33:14.845Z,1.25
2022-11-16T09:35:41.288Z,0.60
2022-11-16T09:38:09.807Z,1.65
2022-11-16T09:40:43.174Z,0.65
2022-11-16T09:43:44.139Z,0.67
2022-11-16T09:46:25.624Z,0.40
2022-11-16T09:48:56.329Z,0.50
2022-11-16T09:51:25.650Z,0.80
2022-11-16T09:54:00.472Z,0.30
2022-11-16T09:56:29.542Z,0.73
2022-11-16T09:59:07.863Z,0.60
2022-11-16T10:01:43.991Z,0.60
2022-11-16T10:04:17.269Z,0.32
2022-11-16T10:06:55.332Z,0.60
2022-11-16T10:09:22.196Z,0.50
2022-11-16T10:12:26.019Z,0.65
2022-11-16T10:15:12.733Z,0.40
2022-11-16T10:18:13.752Z,0.60
2022-11-16T10:21:01.937Z,0.40
2022-11-16T10:23:49.828Z,0.70
2022-11-16T10:26:27.837Z,0.43
2022-11-16T10:29:04.988Z,0.77
2022-11-16T10:31:53.612Z,0.50
2022-11-16T10:34:28.378Z,0.40
2022-11-16T10:37:03.107Z,1.03
2022-11-16T10:39:32.137Z,0.30
2022-11-16T10:42:07.424Z,0.43
2022-11-16T10:44:38.782Z,2.30
2022-11-16T10:47:18.531Z,0.50
2022-11-16T10:49:56.503Z,0.90
2022-11-16T10:52:23.596Z,0.75
2022-11-16T10:54:50.160Z,0.63
2022-11-16T10:57:17.716Z,0.80
2022-11-16T10:59:50.030Z,0.60
2022-11-16T11:02:35.019Z,0.40
2022-11-16T11:05:17.011Z,0.43
2022-11-16T11:07:59.756Z,0.52
2022-11-16T11:10:34.220Z,0.50
2022-11-16T11:13:08.096Z,0.50
2022-11-16T11:15:34.610Z,0.40
2022-11-16T11:18:20.765Z,0.70
2022-11-16T11:20:51.077Z,0.43
2022-11-16T11:23:23.714Z,1.23
2022-11-16T11:25:58.253Z,0.77
2022-11-16T11:28:37.606Z,0.57
2022-11-16T11:31:09.278Z,0.40
2022-11-16T11:33:38.578Z,0.57
2022-11-16T11:36:25.885Z,0.30
2022-11-16T11:39:03.290Z,0.30
2022-11-16T11:41:41.686Z,0.37
2022-11-16T11:44:13.835Z,0.40
2022-11-16T11:47:35.068Z,0.38
2022-11-16T11:49:39.016Z,0.65
2022-11-16T11:52:14.267Z,0.40
2022-11-16T11:54:47.579Z,0.37
2022-11-16T11:57:20.473Z,0.45
2022-11-16T11:59:48.175Z,0.45
2022-11-16T12:02:26.352Z,0.30
2022-11-16T12:05:11.535Z,0.43
2022-11-16T12:08:26.510Z,0.60
2022-11-16T12:11:00.309Z,0.47
2022-11-16T12:13:58.366Z,0.30
2022-11-16T12:16:46.202Z,0.38
2022-11-16T12:19:18.078Z,0.60
2022-11-16T12:21:55.623Z,0.50
2022-11-16T12:24:46.307Z,0.38
2022-11-16T12:27:39.816Z,0.30
2022-11-16T12:30:14.858Z,0.30
2022-11-16T12:32:59.274Z,0.70
2022-11-16T12:35:40.739Z,0.30
2022-11-16T12:38:28.677Z,1.00
2022-11-16T12:41:12.385Z,0.40
2022-11-16T12:44:03.588Z,0.88
2022-11-16T12:46:45.255Z,0.40
2022-11-16T12:49:30.281Z,0.40
2022-11-16T12:52:08.611Z,0.30
2022-11-16T12:58:31.404Z,0.30
2022-11-16T13:01:36.179Z,0.50
2022-11-16T13:04:41.059Z,0.80
2022-11-16T13:07:16.852Z,0.73
2022-11-16T13:09:48.850Z,0.55
2022-11-16T13:12:23.368Z,0.20
2022-11-16T13:14:53.648Z,0.30
2022-11-16T13:17:31.000Z,0.20
2022-11-16T13:20:18.991Z,0.60
2022-11-16T13:22:59.453Z,0.32
2022-11-16T13:25:56.029Z,0.20
2022-11-16T13:28:38.418Z,0.40
2022-11-16T13:31:10.339Z,0.20
2022-11-16T13:33:49.182Z,0.30
2022-11-16T13:36:32.154Z,0.17
2022-11-16T13:38:58.775Z,0.73
2022-11-16T13:41:38.369Z,0.25
2022-11-16T13:44:18.779Z,0.40
2022-11-16T13:46:57.338Z,0.20
2022-11-16T13:49:23.710Z,0.30
2022-11-16T13:52:07.037Z,0.40
2022-11-16T13:54:49.302Z,0.20
2022-11-16T13:57:32.490Z,0.20
2022-11-16T14:00:01.776Z,0.43
2022-11-16T14:02:31.553Z,0.20
2022-11-16T14:05:14.148Z,0.90
2022-11-16T14:07:46.951Z,0.20
2022-11-16T14:10:42.518Z,0.30
2022-11-16T14:13:37.771Z,0.20
2022-11-16T14:16:19.486Z,0.40
2022-11-16T14:18:47.794Z,0.75
2022-11-16T14:21:20.310Z,0.28
2022-11-16T14:24:05.268Z,0.20
2022-11-16T14:26:42.247Z,0.40
2022-11-16T14:29:24.355Z,0.40
2022-11-16T14:31:54.336Z,0.45
2022-11-16T14:34:24.675Z,0.43
2022-11-16T14:36:51.662Z,0.30
2022-11-16T14:39:41.073Z,0.10
2022-11-16T14:42:18.084Z,0.30
2022-11-16T14:44:44.894Z,0.65
2022-11-16T14:47:27.024Z,0.40
2022-11-16T14:49:55.016Z,0.20
2022-11-16T14:52:35.394Z,0.32
2022-11-16T14:55:06.440Z,0.10
2022-11-16T14:57:32.898Z,0.20
2022-11-16T15:00:11.972Z,0.30
2022-11-16T15:02:40.075Z,0.40
2022-11-16T15:05:07.017Z,0.20
2022-11-16T15:07:33.529Z,0.20
2022-11-16T15:10:00.428Z,0.40
2022-11-16T15:12:42.098Z,0.30
2022-11-16T15:15:11.503Z,0.30
2022-11-16T15:17:39.903Z,0.20
2022-11-16T15:20:27.167Z,0.20
2022-11-16T15:22:57.188Z,0.20
2022-11-16T15:25:56.235Z,0.60
2022-11-16T15:28:31.717Z,0.20
2022-11-16T15:31:01.627Z,0.25
2022-11-16T15:33:30.786Z,0.20
2022-11-16T15:35:57.532Z,0.50
2022-11-16T15:38:27.591Z,0.45
2022-11-16T15:41:02.263Z,0.33
2022-11-16T15:43:32.323Z,0.35
2022-11-16T15:46:00.425Z,0.30
2022-11-16T15:48:28.404Z,0.40
2022-11-16T15:51:13.482Z,0.40
2022-11-16T15:53:44.425Z,0.43
2022-11-16T15:56:18.970Z,0.45
2022-11-16T15:58:46.282Z,1.02
2022-11-16T16:01:14.110Z,0.55
2022-11-16T16:03:51.093Z,0.50
2022-11-16T16:06:44.164Z,0.40
2022-11-16T16:09:23.460Z,1.05
2022-11-16T16:11:50.179Z,0.82
2022-11-16T16:14:25.098Z,1.17
2022-11-16T16:16:57.865Z,0.60
2022-11-16T16:19:32.325Z,0.80
2022-11-16T16:21:59.462Z,0.60
2022-11-16T16:24:46.048Z,0.80
2022-11-16T16:27:23.818Z,1.08
2022-11-16T16:29:55.554Z,0.40
2022-11-16T16:32:33.481Z,1.73
2022-11-16T16:35:02.502Z,0.70
2022-11-16T16:37:30.930Z,0.50
2022-11-16T16:39:58.347Z,1.10
2022-11-16T16:42:25.117Z,0.80
2022-11-16T16:44:51.506Z,0.60
2022-11-16T16:47:20.585Z,0.75
2022-11-16T16:49:47.806Z,1.27
2022-11-16T16:52:14.241Z,0.73
2022-11-16T16:54:41.048Z,0.65
2022-11-16T16:57:13.104Z,0.40
2022-11-16T16:59:40.239Z,0.77
2022-11-16T17:02:06.567Z,1.70
2022-11-16T17:04:32.852Z,0.75
2022-11-16T17:06:59.207Z,1.00
2022-11-16T17:09:25.602Z,0.90
2022-11-16T17:11:51.924Z,0.80
2022-11-16T17:14:19.746Z,0.90
2022-11-16T17:16:46.045Z,1.17
2022-11-16T17:19:13.805Z,1.02
2022-11-16T17:21:40.306Z,0.80
2022-11-16T17:24:07.003Z,0.90
2022-11-16T17:26:33.355Z,0.70
2022-11-16T17:28:59.676Z,0.93
2022-11-16T17:31:26.652Z,0.80
2022-11-16T17:33:53.039Z,0.70
2022-11-16T17:36:19.844Z,0.43
2022-11-16T17:38:46.185Z,1.00
2022-11-16T17:41:15.206Z,0.50
2022-11-16T17:43:43.521Z,0.45
2022-11-16T17:46:14.706Z,1.17
2022-11-16T17:48:43.177Z,0.98
2022-11-16T17:51:11.507Z,1.38
2022-11-16T17:53:39.788Z,0.90
2022-11-16T17:56:07.243Z,0.80
2022-11-16T17:58:34.333Z,0.90
2022-11-16T18:01:00.694Z,1.70
2022-11-16T18:03:28.314Z,3.83
2022-11-16T18:06:03.615Z,2.08
2022-11-16T18:08:31.753Z,1.60
2022-11-16T18:11:06.745Z,1.20
2022-11-16T18:13:34.241Z,2.38
2022-11-16T18:16:05.680Z,1.20
2022-11-16T18:18:33.225Z,1.10
2022-11-16T18:21:02.471Z,1.10
2022-11-16T18:23:28.981Z,0.87
2022-11-16T18:25:55.939Z,1.60
2022-11-16T18:28:22.719Z,1.98
2022-11-16T18:30:49.118Z,1.23
2022-11-16T18:33:16.379Z,1.17
2022-11-16T18:35:43.679Z,2.90
2022-11-16T18:38:12.993Z,2.20
2022-11-16T18:40:40.252Z,2.35
2022-11-16T18:43:12.425Z,1.02
2022-11-16T18:45:38.903Z,1.40
2022-11-16T18:48:05.293Z,1.23
2022-11-16T18:50:31.599Z,3.00
2022-11-16T18:52:57.937Z,6.30
2022-11-16T18:55:24.262Z,5.05
2022-11-16T18:57:50.564Z,2.50
2022-11-16T19:00:19.301Z,1.00
2022-11-16T19:02:45.657Z,1.08
2022-11-16T19:05:11.962Z,1.40
2022-11-16T19:07:38.360Z,1.35
2022-11-16T19:10:05.122Z,0.50
2022-11-16T19:12:31.442Z,0.77
2022-11-16T19:14:57.774Z,1.90
2022-11-16T19:17:24.795Z,1.65
2022-11-16T19:19:51.085Z,0.40
2022-11-16T19:22:18.149Z,0.85
2022-11-16T19:24:44.441Z,0.70
2022-11-16T19:27:11.943Z,1.60
2022-11-16T19:29:38.258Z,0.68
2022-11-16T19:32:04.749Z,0.80
2022-11-16T19:34:33.449Z,0.90
2022-11-16T19:36:59.941Z,0.77
2022-11-16T19:39:26.682Z,1.42
2022-11-16T19:41:53.014Z,0.73
2022-11-16T19:44:19.959Z,0.50
2022-11-16T19:46:46.300Z,0.63
2022-11-16T19:49:19.625Z,0.60
2022-11-16T19:51:46.379Z,0.45
2022-11-16T19:54:14.637Z,0.40
2022-11-16T19:56:41.636Z,0.60
2022-11-16T19:59:07.969Z,0.55
2022-11-16T20:01:34.375Z,0.40
2022-11-16T20:04:03.303Z,0.35
2022-11-16T20:06:32.396Z,0.35
2022-11-16T20:09:00.923Z,0.40
2022-11-16T20:11:33.974Z,0.50
2022-11-16T20:14:00.965Z,0.70
2022-11-16T20:16:32.696Z,0.93
2022-11-16T20:19:01.874Z,0.50
2022-11-16T20:21:30.549Z,0.40
2022-11-16T20:24:03.127Z,0.98
2022-11-16T20:26:34.241Z,0.73
2022-11-16T20:29:00.617Z,1.00
2022-11-16T20:31:29.279Z,0.90
2022-11-16T20:34:00.721Z,0.73
2022-11-16T20:36:29.233Z,0.70
2022-11-16T20:38:58.047Z,0.57
2022-11-16T20:41:32.830Z,0.45
2022-11-16T20:44:01.109Z,1.10
2022-11-16T20:46:29.791Z,0.40
2022-11-16T20:48:59.239Z,0.70
2022-11-16T20:51:25.679Z,0.50
2022-11-16T20:53:52.428Z,0.50
2022-11-16T20:56:19.896Z,0.95
2022-11-16T20:58:47.150Z,0.65
2022-11-16T21:01:20.168Z,0.50
2022-11-16T21:03:46.881Z,0.67
2022-11-16T21:06:14.391Z,0.70
2022-11-16T21:08:41.412Z,1.65
2022-11-16T21:11:16.715Z,1.98
2022-11-16T21:14:03.781Z,1.30
2022-11-16T21:16:30.554Z,1.20
2022-11-16T21:18:57.119Z,1.00
2022-11-16T21:21:25.581Z,0.73
2022-11-16T21:23:52.267Z,0.63
2022-11-16T21:26:24.183Z,2.40
2022-11-16T21:28:51.299Z,3.20
2022-11-16T21:31:20.043Z,0.73
2022-11-16T21:33:47.323Z,2.45
2022-11-16T21:36:19.026Z,1.80
2022-11-16T21:38:45.983Z,0.68
2022-11-16T21:41:14.884Z,0.57
2022-11-16T21:43:41.685Z,0.60
2022-11-16T21:46:14.605Z,0.88
2022-11-16T21:48:41.344Z,0.82
2022-11-16T21:51:09.968Z,0.50
2022-11-16T21:53:36.956Z,0.57
2022-11-16T21:56:05.582Z,0.65
2022-11-16T21:58:31.960Z,0.40
2022-11-16T22:01:01.285Z,0.60
2022-11-16T22:03:29.867Z,0.68
2022-11-16T22:06:17.283Z,0.60
2022-11-16T22:08:44.367Z,0.88
2022-11-16T22:11:11.770Z,0.47
2022-11-16T22:13:38.558Z,0.88
2022-11-16T22:16:10.648Z,0.60
2022-11-16T22:18:37.381Z,0.60
2022-11-16T22:21:04.849Z,0.70
2022-11-16T22:23:31.965Z,0.60
2022-11-16T22:26:02.065Z,0.68
2022-11-16T22:28:28.516Z,0.52
2022-11-16T22:31:11.697Z,0.67
2022-11-16T22:33:38.866Z,0.50
2022-11-16T22:36:08.206Z,0.90
2022-11-16T22:38:35.142Z,1.02
2022-11-16T22:41:01.450Z,0.98
2022-11-16T22:43:29.808Z,0.90
2022-11-16T22:46:04.363Z,0.90
2022-11-16T22:48:32.184Z,0.70
2022-11-16T22:51:03.534Z,0.80
2022-11-16T22:53:29.849Z,0.45
2022-11-16T22:56:03.136Z,0.70
2022-11-16T22:58:29.448Z,0.80
2022-11-16T23:00:55.769Z,1.02
2022-11-16T23:03:22.182Z,0.90
2022-11-16T23:05:48.507Z,0.60
2022-11-16T23:08:14.847Z,0.67
2022-11-16T23:11:01.129Z,0.60
2022-11-16T23:13:46.138Z,0.52
2022-11-16T23:16:12.440Z,0.60
2022-11-16T23:18:39.879Z,0.98
2022-11-16T23:21:24.425Z,0.70
2022-11-16T23:24:09.321Z,0.60
2022-11-16T23:26:54.110Z,0.57
2022-11-16T23:29:20.459Z,1.13
2022-11-16T23:31:46.761Z,0.65
2022-11-16T23:34:13.105Z,1.10
2022-11-16T23:36:39.425Z,0.88
2022-11-16T23:39:05.784Z,1.35
2022-11-16T23:41:50.813Z,0.95
2022-11-16T23:44:17.119Z,0.60
2022-11-16T23:46:43.483Z,0.80
2022-11-16T23:49:09.789Z,0.57
2022-11-16T23:51:36.102Z,0.90
2022-11-16T23:54:02.401Z,0.90
2022-11-16T23:56:28.978Z,1.05
2022-11-16T23:58:57.003Z,0.50
